createdAt,value
2023-01-29T00:00:03.844Z,77.52
2023-01-29T00:02:33.599Z,77.65
2023-01-29T00:05:16.640Z,76.73
2023-01-29T00:07:50.084Z,77.13
2023-01-29T00:10:18.859Z,77.73
2023-01-29T00:12:47.185Z,79.76
2023-01-29T00:15:15.481Z,82.63
2023-01-29T00:17:45.190Z,83.44
2023-01-29T00:20:16.097Z,85.29
2023-01-29T00:22:44.589Z,87.19
2023-01-29T00:25:12.810Z,88.04
2023-01-29T00:27:41.049Z,88.98
2023-01-29T00:30:13.201Z,91.09
2023-01-29T00:32:42.020Z,96.67
2023-01-29T00:35:12.066Z,100.00
2023-01-29T00:37:40.350Z,100.00
2023-01-29T00:40:09.952Z,97.43
2023-01-29T00:42:56.851Z,94.62
2023-01-29T00:45:25.124Z,95.61
2023-01-29T00:47:53.402Z,96.12
2023-01-29T00:50:23.434Z,97.51
2023-01-29T00:52:51.977Z,96.96
2023-01-29T00:55:20.524Z,95.88
2023-01-29T00:57:49.078Z,95.46
2023-01-29T01:00:20.210Z,93.76
2023-01-29T01:03:05.987Z,91.44
2023-01-29T01:05:37.119Z,91.94
2023-01-29T01:08:26.078Z,94.31
2023-01-29T01:11:00.212Z,97.43
2023-01-29T01:13:28.551Z,98.67
2023-01-29T01:15:56.853Z,100.00
2023-01-29T01:18:25.106Z,100.00
2023-01-29T01:20:59.754Z,100.00
2023-01-29T01:23:28.329Z,100.00
2023-01-29T01:25:56.624Z,100.00
2023-01-29T01:28:24.916Z,100.00
2023-01-29T01:30:53.295Z,100.00
2023-01-29T01:33:21.993Z,100.00
2023-01-29T01:35:50.312Z,100.00
2023-01-29T01:38:19.990Z,100.00
2023-01-29T01:40:48.495Z,99.31
2023-01-29T01:43:16.768Z,96.72
2023-01-29T01:45:46.890Z,93.25
2023-01-29T01:48:20.340Z,91.79
2023-01-29T01:50:52.490Z,88.04
2023-01-29T01:53:25.418Z,86.78
2023-01-29T01:56:00.160Z,87.18
2023-01-29T01:58:33.338Z,88.33
2023-01-29T02:01:02.559Z,88.21
2023-01-29T02:03:52.998Z,87.11
2023-01-29T02:06:38.925Z,86.56
2023-01-29T02:09:31.707Z,85.07
2023-01-29T02:11:59.956Z,83.97
2023-01-29T02:14:28.590Z,83.79
2023-01-29T02:16:56.849Z,83.58
2023-01-29T02:19:40.000Z,83.51
2023-01-29T02:22:25.999Z,83.40
2023-01-29T02:25:26.784Z,83.44
2023-01-29T02:28:24.013Z,82.57
2023-01-29T02:31:00.755Z,82.36
2023-01-29T02:33:43.026Z,82.14
2023-01-29T02:36:21.066Z,83.39
2023-01-29T02:38:58.749Z,85.21
2023-01-29T02:41:30.329Z,85.79
2023-01-29T02:44:06.090Z,86.48
2023-01-29T02:46:39.195Z,87.17
2023-01-29T02:49:16.702Z,85.29
2023-01-29T02:51:49.909Z,84.75
2023-01-29T02:54:23.202Z,84.17
2023-01-29T02:56:57.439Z,83.92
2023-01-29T02:59:32.622Z,83.92
2023-01-29T03:02:06.626Z,83.32
2023-01-29T03:04:42.651Z,83.66
2023-01-29T03:07:36.688Z,85.14
2023-01-29T03:10:08.190Z,84.82
2023-01-29T03:12:39.486Z,88.34
2023-01-29T03:15:16.747Z,91.22
2023-01-29T03:17:52.120Z,92.46
2023-01-29T03:20:26.767Z,95.73
2023-01-29T03:23:01.496Z,96.78
2023-01-29T03:25:47.744Z,97.29
2023-01-29T03:28:36.983Z,95.22
2023-01-29T03:31:26.935Z,93.60
2023-01-29T03:34:01.771Z,92.51
2023-01-29T03:36:38.399Z,93.00
2023-01-29T03:39:07.666Z,96.26
2023-01-29T03:41:39.514Z,97.12
2023-01-29T03:44:16.594Z,96.40
2023-01-29T03:46:52.978Z,91.85
2023-01-29T03:49:31.104Z,90.11
2023-01-29T03:52:04.226Z,85.44
2023-01-29T03:54:39.940Z,83.07
2023-01-29T03:57:16.743Z,81.18
2023-01-29T03:59:54.957Z,81.26
2023-01-29T04:02:28.969Z,79.81
2023-01-29T04:05:03.380Z,79.96
2023-01-29T04:07:33.577Z,79.27
2023-01-29T04:10:06.896Z,79.64
2023-01-29T04:12:41.564Z,79.75
2023-01-29T04:15:15.464Z,79.00
2023-01-29T04:17:50.246Z,78.52
2023-01-29T04:20:19.415Z,78.56
2023-01-29T04:22:50.090Z,77.71
2023-01-29T04:25:26.834Z,79.04
2023-01-29T04:28:06.094Z,77.85
2023-01-29T04:30:43.245Z,77.58
2023-01-29T04:33:27.484Z,77.05
2023-01-29T04:36:19.340Z,76.27
2023-01-29T04:39:02.212Z,76.63
2023-01-29T04:41:35.477Z,76.94
2023-01-29T04:44:12.318Z,77.31
2023-01-29T04:46:48.850Z,76.85
2023-01-29T04:49:31.269Z,76.53
2023-01-29T04:52:06.682Z,76.00
2023-01-29T04:54:45.470Z,75.60
2023-01-29T04:57:19.754Z,75.50
2023-01-29T04:59:52.656Z,75.65
2023-01-29T05:02:24.321Z,76.13
2023-01-29T05:04:55.905Z,76.22
2023-01-29T05:07:25.857Z,76.24
2023-01-29T05:09:54.613Z,75.39
2023-01-29T05:12:26.856Z,75.36
2023-01-29T05:14:57.722Z,75.35
2023-01-29T05:17:26.103Z,75.29
2023-01-29T05:19:57.374Z,75.27
2023-01-29T05:22:26.675Z,74.56
2023-01-29T05:24:54.945Z,74.38
2023-01-29T05:27:48.333Z,74.47
2023-01-29T05:30:17.225Z,74.55
2023-01-29T05:32:45.648Z,74.33
2023-01-29T05:35:15.380Z,74.59
2023-01-29T05:37:43.785Z,75.27
2023-01-29T05:40:12.888Z,75.82
2023-01-29T05:42:41.136Z,76.63
2023-01-29T05:45:10.708Z,77.31
2023-01-29T05:47:39.067Z,78.13
2023-01-29T05:50:08.371Z,78.13
2023-01-29T05:52:38.046Z,78.25
2023-01-29T05:55:07.440Z,78.46
2023-01-29T05:57:35.758Z,78.06
2023-01-29T06:00:04.569Z,78.78
2023-01-29T06:02:32.999Z,78.41
2023-01-29T06:05:01.289Z,78.49
2023-01-29T06:07:29.495Z,79.17
2023-01-29T06:09:59.162Z,79.86
2023-01-29T06:12:28.194Z,79.54
2023-01-29T06:14:56.428Z,79.35
2023-01-29T06:17:24.787Z,78.65
2023-01-29T06:19:53.086Z,78.72
2023-01-29T06:22:21.310Z,79.66
2023-01-29T06:24:49.619Z,79.45
2023-01-29T06:27:19.342Z,78.16
2023-01-29T06:29:47.627Z,77.55
2023-01-29T06:32:16.086Z,78.40
2023-01-29T06:34:44.367Z,78.30
2023-01-29T06:37:12.720Z,76.84
2023-01-29T06:39:41.086Z,77.41
2023-01-29T06:42:10.177Z,77.83
2023-01-29T06:44:39.823Z,77.67
2023-01-29T06:47:08.091Z,79.04
2023-01-29T06:49:36.344Z,78.77
2023-01-29T06:52:04.693Z,78.59
2023-01-29T06:54:34.833Z,78.29
2023-01-29T06:57:03.075Z,77.77
2023-01-29T06:59:31.363Z,78.18
2023-01-29T07:02:00.983Z,79.63
2023-01-29T07:04:29.244Z,80.96
2023-01-29T07:06:57.494Z,77.89
2023-01-29T07:09:25.745Z,77.08
2023-01-29T07:11:53.981Z,76.13
2023-01-29T07:14:22.247Z,76.69
2023-01-29T07:16:50.573Z,76.64
2023-01-29T07:19:20.235Z,77.13
2023-01-29T07:21:48.534Z,76.50
2023-01-29T07:24:17.176Z,77.46
2023-01-29T07:26:45.481Z,76.26
2023-01-29T07:29:13.718Z,77.48
2023-01-29T07:31:42.116Z,76.87
2023-01-29T07:34:10.619Z,75.83
2023-01-29T07:36:40.376Z,75.34
2023-01-29T07:39:08.560Z,75.06
2023-01-29T07:41:36.810Z,75.46
2023-01-29T07:44:05.315Z,75.56
2023-01-29T07:46:33.604Z,75.15
2023-01-29T07:49:01.915Z,75.20
2023-01-29T07:51:30.212Z,73.94
2023-01-29T07:53:59.943Z,74.62
2023-01-29T07:56:28.196Z,74.82
2023-01-29T07:58:56.453Z,76.64
2023-01-29T08:01:24.766Z,73.95
2023-01-29T08:03:53.151Z,75.27
2023-01-29T08:06:21.377Z,73.77
2023-01-29T08:08:49.627Z,73.42
2023-01-29T08:11:19.256Z,73.54
2023-01-29T08:13:47.489Z,73.11
2023-01-29T08:16:15.827Z,73.35
2023-01-29T08:18:47.877Z,72.69
2023-01-29T08:21:16.582Z,72.62
2023-01-29T08:23:44.940Z,73.17
2023-01-29T08:26:13.256Z,73.16
2023-01-29T08:28:42.940Z,72.14
2023-01-29T08:31:16.104Z,71.11
2023-01-29T08:33:44.419Z,70.80
2023-01-29T08:36:12.692Z,70.95
2023-01-29T08:38:41.060Z,68.89
2023-01-29T08:41:09.556Z,68.71
2023-01-29T08:43:38.707Z,68.50
2023-01-29T08:46:09.185Z,69.58
2023-01-29T08:48:37.469Z,67.89
2023-01-29T08:51:06.217Z,65.86
2023-01-29T08:53:34.832Z,64.71
2023-01-29T08:56:03.439Z,63.04
2023-01-29T08:58:31.836Z,59.65
2023-01-29T09:01:09.468Z,59.07
2023-01-29T09:03:41.173Z,59.19
2023-01-29T09:06:12.265Z,58.89
2023-01-29T09:08:40.954Z,57.78
2023-01-29T09:11:09.557Z,58.85
2023-01-29T09:13:37.887Z,57.74
2023-01-29T09:16:06.860Z,57.17
2023-01-29T09:18:37.781Z,58.14
2023-01-29T09:21:06.661Z,59.48
2023-01-29T09:23:35.087Z,58.44
2023-01-29T09:26:03.523Z,56.99
2023-01-29T09:28:31.846Z,57.23
2023-01-29T09:31:02.743Z,57.09
2023-01-29T09:33:32.575Z,57.28
2023-01-29T09:36:04.491Z,60.66
2023-01-29T09:38:32.758Z,60.47
2023-01-29T09:41:07.908Z,60.20
2023-01-29T09:43:47.234Z,60.54
2023-01-29T09:46:22.367Z,60.90
2023-01-29T09:48:59.306Z,59.89
2023-01-29T09:51:33.493Z,60.11
2023-01-29T09:54:13.579Z,60.79
2023-01-29T09:56:43.759Z,61.71
2023-01-29T09:59:14.919Z,61.06
2023-01-29T10:01:51.933Z,60.30
2023-01-29T10:04:44.540Z,59.07
2023-01-29T10:07:41.609Z,55.58
2023-01-29T10:10:23.849Z,56.03
2023-01-29T10:13:04.720Z,55.12
2023-01-29T10:15:45.631Z,53.54
2023-01-29T10:18:47.386Z,53.27
2023-01-29T10:21:28.247Z,53.27
2023-01-29T10:24:08.324Z,53.95
2023-01-29T10:26:40.740Z,55.36
2023-01-29T10:29:12.942Z,53.15
2023-01-29T10:31:42.199Z,51.45
2023-01-29T10:34:18.428Z,52.87
2023-01-29T10:36:48.744Z,51.12
2023-01-29T10:39:19.807Z,47.71
2023-01-29T10:42:14.593Z,48.39
2023-01-29T10:45:01.853Z,44.58
2023-01-29T10:48:06.392Z,45.85
2023-01-29T10:50:49.017Z,45.23
2023-01-29T10:53:39.844Z,46.33
2023-01-29T10:56:26.428Z,45.55
2023-01-29T10:58:58.200Z,44.46
2023-01-29T11:01:27.092Z,44.83
2023-01-29T11:04:02.125Z,45.42
2023-01-29T11:06:33.235Z,48.16
2023-01-29T11:09:08.364Z,47.62
2023-01-29T11:11:45.284Z,48.78
2023-01-29T11:14:17.942Z,47.16
2023-01-29T11:16:49.727Z,48.68
2023-01-29T11:19:18.755Z,47.24
2023-01-29T11:21:58.088Z,47.59
2023-01-29T11:24:27.102Z,47.85
2023-01-29T11:26:59.997Z,49.87
2023-01-29T11:29:40.407Z,49.27
2023-01-29T11:32:13.183Z,48.22
2023-01-29T11:34:59.774Z,47.33
2023-01-29T11:37:34.539Z,46.39
2023-01-29T11:40:02.943Z,44.64
2023-01-29T11:42:34.341Z,43.88
2023-01-29T11:45:02.565Z,44.95
2023-01-29T11:47:31.929Z,43.05
2023-01-29T11:50:03.902Z,43.33
2023-01-29T11:52:38.948Z,43.18
2023-01-29T11:55:15.453Z,42.44
2023-01-29T11:57:50.488Z,42.48
2023-01-29T12:00:23.996Z,42.19
2023-01-29T12:02:56.942Z,41.80
2023-01-29T12:05:26.779Z,41.37
2023-01-29T12:07:57.904Z,41.67
2023-01-29T12:10:35.594Z,42.23
2023-01-29T12:13:22.418Z,41.49
2023-01-29T12:15:50.947Z,41.41
2023-01-29T12:18:28.090Z,41.96
2023-01-29T12:20:59.796Z,42.92
2023-01-29T12:23:37.591Z,43.08
2023-01-29T12:26:10.693Z,45.97
2023-01-29T12:28:50.669Z,44.14
2023-01-29T12:31:30.786Z,45.04
2023-01-29T12:34:06.370Z,44.07
2023-01-29T12:36:39.856Z,43.79
2023-01-29T12:39:10.626Z,43.58
2023-01-29T12:41:46.202Z,44.69
2023-01-29T12:44:20.481Z,46.96
2023-01-29T12:46:53.909Z,47.40
2023-01-29T12:49:26.474Z,49.05
2023-01-29T12:52:00.360Z,50.34
2023-01-29T12:54:36.863Z,50.39
2023-01-29T12:57:11.300Z,50.02
2023-01-29T12:59:45.558Z,50.05
2023-01-29T13:02:25.160Z,51.54
2023-01-29T13:05:00.715Z,49.89
2023-01-29T13:07:34.497Z,49.87
2023-01-29T13:10:11.722Z,49.23
2023-01-29T13:12:42.919Z,49.73
2023-01-29T13:15:24.107Z,51.78
2023-01-29T13:17:58.012Z,51.94
2023-01-29T13:20:30.657Z,52.12
2023-01-29T13:23:05.923Z,52.99
2023-01-29T13:25:35.471Z,53.72
2023-01-29T13:28:04.332Z,53.74
2023-01-29T13:30:38.840Z,52.24
2023-01-29T13:33:10.911Z,52.87
2023-01-29T13:35:43.178Z,53.11
2023-01-29T13:38:26.017Z,52.52
2023-01-29T13:40:57.853Z,52.99
2023-01-29T13:43:26.330Z,53.67
2023-01-29T13:45:56.496Z,53.37
2023-01-29T13:48:28.763Z,53.44
2023-01-29T13:51:01.508Z,53.56
2023-01-29T13:53:36.271Z,53.35
2023-01-29T13:56:51.742Z,53.48
2023-01-29T13:59:25.125Z,54.32
2023-01-29T14:02:20.049Z,53.45
2023-01-29T14:04:48.401Z,53.65
2023-01-29T14:07:51.596Z,54.07
2023-01-29T14:10:22.305Z,54.02
2023-01-29T14:12:53.417Z,54.41
2023-01-29T14:15:34.668Z,54.86
2023-01-29T14:18:20.283Z,53.21
2023-01-29T14:21:22.164Z,52.82
2023-01-29T14:23:52.431Z,52.65
2023-01-29T14:26:25.500Z,54.04
2023-01-29T14:28:57.852Z,54.13
2023-01-29T14:31:43.001Z,54.38
2023-01-29T14:34:22.074Z,54.18
2023-01-29T14:36:55.569Z,54.58
2023-01-29T14:39:30.893Z,55.61
2023-01-29T14:42:00.632Z,54.29
2023-01-29T14:45:05.309Z,56.32
2023-01-29T14:48:13.487Z,57.88
2023-01-29T14:50:49.578Z,57.45
2023-01-29T14:53:34.266Z,58.53
2023-01-29T14:56:05.664Z,59.54
2023-01-29T14:58:40.669Z,60.00
2023-01-29T15:01:19.741Z,61.35
2023-01-29T15:03:50.191Z,61.11
2023-01-29T15:06:25.790Z,61.68
2023-01-29T15:09:02.439Z,62.81
2023-01-29T15:11:37.143Z,62.16
2023-01-29T15:14:25.929Z,62.43
2023-01-29T15:17:03.259Z,62.02
2023-01-29T15:19:36.969Z,62.61
2023-01-29T15:22:12.899Z,63.05
2023-01-29T15:24:42.985Z,62.67
2023-01-29T15:27:15.827Z,62.15
2023-01-29T15:29:48.753Z,61.41
2023-01-29T15:32:30.571Z,62.41
2023-01-29T15:35:00.575Z,63.01
2023-01-29T15:37:33.537Z,62.81
2023-01-29T15:40:03.784Z,61.76
2023-01-29T15:42:46.410Z,64.37
2023-01-29T15:45:26.010Z,63.34
2023-01-29T15:47:56.714Z,66.06
2023-01-29T15:50:25.502Z,63.70
2023-01-29T15:52:56.324Z,63.55
2023-01-29T15:55:25.669Z,63.10
2023-01-29T15:57:54.741Z,63.44
2023-01-29T16:00:27.871Z,62.63
2023-01-29T16:02:57.007Z,62.65
2023-01-29T16:05:29.040Z,62.63
2023-01-29T16:08:00.629Z,62.70
2023-01-29T16:10:31.639Z,63.00
2023-01-29T16:13:01.391Z,62.55
2023-01-29T16:15:34.436Z,63.35
2023-01-29T16:18:05.271Z,63.26
2023-01-29T16:20:37.877Z,63.44
2023-01-29T16:23:10.188Z,64.01
2023-01-29T16:25:40.523Z,64.19
2023-01-29T16:28:11.222Z,64.37
2023-01-29T16:30:40.481Z,63.53
2023-01-29T16:33:14.537Z,62.84
2023-01-29T16:35:51.900Z,63.12
2023-01-29T16:38:33.940Z,63.65
2023-01-29T16:41:15.406Z,63.09
2023-01-29T16:43:53.336Z,62.87
2023-01-29T16:46:26.447Z,62.21
2023-01-29T16:48:55.690Z,62.75
2023-01-29T16:51:27.293Z,64.13
2023-01-29T16:54:16.464Z,63.31
2023-01-29T16:56:46.676Z,62.81
2023-01-29T16:59:20.433Z,63.08
2023-01-29T17:01:56.660Z,62.92
2023-01-29T17:04:25.821Z,63.57
2023-01-29T17:06:58.616Z,63.85
2023-01-29T17:09:31.351Z,64.12
2023-01-29T17:12:02.935Z,63.68
2023-01-29T17:14:32.584Z,65.17
2023-01-29T17:17:05.714Z,67.44
2023-01-29T17:19:34.700Z,64.41
2023-01-29T17:22:05.728Z,64.27
2023-01-29T17:24:36.141Z,63.45
2023-01-29T17:27:04.742Z,63.70
2023-01-29T17:29:33.444Z,63.85
2023-01-29T17:32:01.809Z,64.44
2023-01-29T17:34:30.578Z,63.69
2023-01-29T17:37:02.201Z,63.30
2023-01-29T17:39:31.107Z,62.71
2023-01-29T17:42:02.059Z,64.59
2023-01-29T17:44:30.952Z,64.94
2023-01-29T17:47:00.295Z,63.51
2023-01-29T17:49:32.597Z,63.90
2023-01-29T17:52:01.141Z,65.46
2023-01-29T17:54:29.416Z,63.56
2023-01-29T17:56:58.433Z,64.98
2023-01-29T17:59:34.453Z,64.18
2023-01-29T18:02:02.816Z,64.04
2023-01-29T18:04:34.675Z,63.54
2023-01-29T18:07:03.118Z,63.33
2023-01-29T18:09:31.550Z,63.88
2023-01-29T18:12:02.510Z,64.63
2023-01-29T18:14:32.510Z,63.56
2023-01-29T18:17:00.838Z,62.80
2023-01-29T18:19:31.280Z,64.58
2023-01-29T18:21:59.761Z,63.73
2023-01-29T18:24:28.113Z,63.12
2023-01-29T18:26:56.348Z,63.00
2023-01-29T18:29:29.841Z,62.37
2023-01-29T18:32:05.701Z,61.89
2023-01-29T18:34:34.550Z,63.21
2023-01-29T18:37:04.535Z,62.42
2023-01-29T18:39:33.065Z,62.71
2023-01-29T18:42:01.624Z,62.34
2023-01-29T18:44:30.977Z,62.31
2023-01-29T18:47:01.056Z,62.78
2023-01-29T18:49:29.666Z,63.29
2023-01-29T18:51:58.879Z,62.72
2023-01-29T18:54:27.877Z,63.84
2023-01-29T18:57:11.552Z,63.56
2023-01-29T18:59:43.111Z,64.61
2023-01-29T19:02:19.471Z,64.22
2023-01-29T19:04:48.062Z,64.12
2023-01-29T19:07:20.173Z,63.87
2023-01-29T19:09:50.870Z,64.28
2023-01-29T19:12:22.740Z,64.97
2023-01-29T19:14:51.561Z,65.58
2023-01-29T19:17:21.689Z,64.61
2023-01-29T19:19:51.245Z,64.91
2023-01-29T19:22:25.216Z,65.00
2023-01-29T19:24:56.647Z,65.45
2023-01-29T19:27:26.517Z,65.94
2023-01-29T19:30:18.993Z,66.84
2023-01-29T19:32:59.389Z,65.13
2023-01-29T19:35:27.610Z,65.04
2023-01-29T19:37:56.257Z,65.56
2023-01-29T19:40:25.235Z,64.48
2023-01-29T19:42:56.349Z,65.50
2023-01-29T19:45:37.340Z,64.75
2023-01-29T19:48:17.145Z,66.17
2023-01-29T19:50:52.172Z,67.40
2023-01-29T19:53:21.573Z,66.22
2023-01-29T19:55:57.664Z,66.29
2023-01-29T19:58:26.331Z,66.70
2023-01-29T20:00:59.058Z,67.05
2023-01-29T20:03:31.394Z,65.28
2023-01-29T20:06:04.095Z,65.74
2023-01-29T20:08:33.321Z,65.59
2023-01-29T20:11:01.576Z,65.99
2023-01-29T20:13:31.131Z,66.46
2023-01-29T20:16:03.122Z,66.79
2023-01-29T20:18:33.434Z,67.03
2023-01-29T20:21:08.094Z,66.30
2023-01-29T20:23:38.609Z,67.07
2023-01-29T20:26:08.000Z,68.03
2023-01-29T20:28:36.986Z,68.06
2023-01-29T20:31:06.791Z,68.74
2023-01-29T20:33:39.347Z,68.49
2023-01-29T20:36:10.669Z,67.95
2023-01-29T20:38:39.329Z,67.99
2023-01-29T20:41:09.650Z,68.35
2023-01-29T20:43:40.803Z,67.83
2023-01-29T20:46:09.369Z,67.37
2023-01-29T20:48:39.248Z,67.28
2023-01-29T20:51:09.496Z,67.76
2023-01-29T20:53:38.730Z,68.25
2023-01-29T20:56:11.183Z,68.53
2023-01-29T20:58:41.048Z,67.88
2023-01-29T21:01:10.267Z,68.27
2023-01-29T21:03:40.486Z,67.51
2023-01-29T21:06:15.693Z,67.11
2023-01-29T21:08:44.152Z,67.46
2023-01-29T21:11:12.797Z,68.04
2023-01-29T21:13:41.357Z,67.61
2023-01-29T21:16:11.460Z,68.00
2023-01-29T21:18:41.410Z,67.48
2023-01-29T21:21:09.766Z,67.64
2023-01-29T21:23:38.096Z,67.55
2023-01-29T21:26:07.473Z,66.87
2023-01-29T21:28:36.257Z,66.68
2023-01-29T21:31:06.038Z,66.28
2023-01-29T21:33:35.094Z,66.81
2023-01-29T21:36:05.243Z,65.82
2023-01-29T21:38:34.108Z,66.87
2023-01-29T21:41:07.482Z,67.11
2023-01-29T21:43:35.281Z,66.73
2023-01-29T21:46:06.119Z,66.63
2023-01-29T21:48:34.480Z,65.78
2023-01-29T21:51:04.234Z,65.98
2023-01-29T21:53:32.461Z,66.61
2023-01-29T21:56:01.603Z,66.07
2023-01-29T21:58:30.105Z,66.12
2023-01-29T22:01:11.435Z,66.50
2023-01-29T22:03:47.494Z,67.37
2023-01-29T22:06:17.409Z,67.95
2023-01-29T22:08:45.745Z,68.42
2023-01-29T22:11:14.179Z,68.19
2023-01-29T22:13:42.498Z,68.58
2023-01-29T22:16:10.785Z,67.75
2023-01-29T22:18:39.052Z,67.78
2023-01-29T22:21:07.451Z,68.33
2023-01-29T22:23:37.076Z,68.76
2023-01-29T22:26:06.536Z,69.14
2023-01-29T22:28:34.816Z,69.83
2023-01-29T22:31:03.384Z,69.83
2023-01-29T22:33:31.884Z,68.87
2023-01-29T22:36:00.321Z,68.11
2023-01-29T22:38:30.054Z,68.88
2023-01-29T22:41:01.675Z,68.64
2023-01-29T22:43:30.431Z,70.09
2023-01-29T22:45:58.755Z,69.01
2023-01-29T22:48:28.732Z,69.64
2023-01-29T22:51:10.047Z,72.23
2023-01-29T22:53:39.071Z,70.48
2023-01-29T22:56:09.546Z,70.03
2023-01-29T22:58:38.137Z,70.34
2023-01-29T23:01:06.627Z,75.47
2023-01-29T23:03:35.397Z,70.79
2023-01-29T23:06:04.543Z,72.53
2023-01-29T23:08:34.032Z,71.29
2023-01-29T23:11:14.519Z,70.92
2023-01-29T23:13:46.346Z,70.50
2023-01-29T23:16:15.837Z,71.37
2023-01-29T23:18:44.970Z,70.96
2023-01-29T23:21:13.598Z,71.28
2023-01-29T23:23:44.695Z,71.57
2023-01-29T23:26:31.352Z,70.96
2023-01-29T23:29:01.500Z,71.51
2023-01-29T23:31:29.896Z,73.62
2023-01-29T23:33:58.295Z,70.54
2023-01-29T23:36:26.672Z,71.47
2023-01-29T23:38:54.981Z,69.89
2023-01-29T23:41:23.284Z,71.09
2023-01-29T23:43:51.516Z,72.15
2023-01-29T23:46:21.222Z,70.41
2023-01-29T23:48:49.502Z,71.08
2023-01-29T23:51:17.845Z,71.40
2023-01-29T23:53:46.190Z,71.30
2023-01-29T23:56:14.409Z,71.38
2023-01-29T23:58:42.783Z,70.96
